sensor_id;sensor_type;location;lat;lon;timestamp;temperature;humidity
25732;DHT22;13585;50.864;4.406;2023-06-22T00:01:51;30.30;46.80
25732;DHT22;13585;50.864;4.406;2023-06-22T00:04:16;30.30;46.80
25732;DHT22;13585;50.864;4.406;2023-06-22T00:06:42;30.30;46.70
25732;DHT22;13585;50.864;4.406;2023-06-22T00:09:07;30.30;46.70
25732;DHT22;13585;50.864;4.406;2023-06-22T00:11:33;30.30;47.30
25732;DHT22;13585;50.864;4.406;2023-06-22T00:14:00;30.30;46.70
25732;DHT22;13585;50.864;4.406;2023-06-22T00:16:25;30.30;46.70
25732;DHT22;13585;50.864;4.406;2023-06-22T00:18:51;30.30;46.70
25732;DHT22;13585;50.864;4.406;2023-06-22T00:21:17;30.30;46.60
25732;DHT22;13585;50.864;4.406;2023-06-22T00:23:44;30.30;46.60
25732;DHT22;13585;50.864;4.406;2023-06-22T00:26:10;30.30;46.70
25732;DHT22;13585;50.864;4.406;2023-06-22T00:28:36;30.30;46.60
25732;DHT22;13585;50.864;4.406;2023-06-22T00:31:02;30.30;46.60
25732;DHT22;13585;50.864;4.406;2023-06-22T00:33:28;30.30;46.60
25732;DHT22;13585;50.864;4.406;2023-06-22T00:35:54;30.30;46.60
25732;DHT22;13585;50.864;4.406;2023-06-22T00:38:19;30.30;46.50
25732;DHT22;13585;50.864;4.406;2023-06-22T00:40:46;30.30;46.60
25732;DHT22;13585;50.864;4.406;2023-06-22T00:43:11;30.30;46.50
25732;DHT22;13585;50.864;4.406;2023-06-22T00:45:38;30.30;46.50
25732;DHT22;13585;50.864;4.406;2023-06-22T00:48:04;30.30;46.50
25732;DHT22;13585;50.864;4.406;2023-06-22T00:50:31;30.30;46.50
25732;DHT22;13585;50.864;4.406;2023-06-22T00:53:09;30.20;46.50
25732;DHT22;13585;50.864;4.406;2023-06-22T00:55:37;30.20;46.60
25732;DHT22;13585;50.864;4.406;2023-06-22T00:58:04;30.20;46.50
25732;DHT22;13585;50.864;4.406;2023-06-22T01:00:33;30.30;46.60
25732;DHT22;13585;50.864;4.406;2023-06-22T01:02:59;30.20;46.50
25732;DHT22;13585;50.864;4.406;2023-06-22T01:05:25;30.30;46.60
25732;DHT22;13585;50.864;4.406;2023-06-22T01:11:07;30.20;46.60
25732;DHT22;13585;50.864;4.406;2023-06-22T01:13:45;30.30;46.50
25732;DHT22;13585;50.864;4.406;2023-06-22T01:16:23;30.20;46.50
25732;DHT22;13585;50.864;4.406;2023-06-22T01:18:52;30.30;46.50
25732;DHT22;13585;50.864;4.406;2023-06-22T01:21:21;30.30;46.50
25732;DHT22;13585;50.864;4.406;2023-06-22T01:24:17;30.30;46.50
25732;DHT22;13585;50.864;4.406;2023-06-22T01:27:04;30.20;46.60
25732;DHT22;13585;50.864;4.406;2023-06-22T01:29:36;30.30;46.60
25732;DHT22;13585;50.864;4.406;2023-06-22T01:32:05;30.30;46.50
25732;DHT22;13585;50.864;4.406;2023-06-22T01:34:32;30.30;46.50
25732;DHT22;13585;50.864;4.406;2023-06-22T01:36:58;30.30;46.50
25732;DHT22;13585;50.864;4.406;2023-06-22T01:39:25;30.30;46.60
25732;DHT22;13585;50.864;4.406;2023-06-22T01:41:53;30.30;46.60
25732;DHT22;13585;50.864;4.406;2023-06-22T01:44:20;30.30;46.60
25732;DHT22;13585;50.864;4.406;2023-06-22T01:46:48;30.30;46.60
25732;DHT22;13585;50.864;4.406;2023-06-22T01:49:15;30.30;46.60
25732;DHT22;13585;50.864;4.406;2023-06-22T01:51:40;30.20;46.50
25732;DHT22;13585;50.864;4.406;2023-06-22T01:54:07;30.20;46.60
25732;DHT22;13585;50.864;4.406;2023-06-22T01:56:33;30.20;46.60
25732;DHT22;13585;50.864;4.406;2023-06-22T01:59:14;30.20;46.60
25732;DHT22;13585;50.864;4.406;2023-06-22T02:01:47;30.20;46.60
25732;DHT22;13585;50.864;4.406;2023-06-22T02:04:21;30.20;46.40
25732;DHT22;13585;50.864;4.406;2023-06-22T02:06:52;30.20;46.50
25732;DHT22;13585;50.864;4.406;2023-06-22T02:09:21;30.30;46.50
25732;DHT22;13585;50.864;4.406;2023-06-22T02:11:48;30.20;46.40
25732;DHT22;13585;50.864;4.406;2023-06-22T02:14:14;30.30;46.50
25732;DHT22;13585;50.864;4.406;2023-06-22T02:16:41;30.20;46.40
25732;DHT22;13585;50.864;4.406;2023-06-22T02:19:07;30.20;46.40
25732;DHT22;13585;50.864;4.406;2023-06-22T02:21:33;30.20;46.40
25732;DHT22;13585;50.864;4.406;2023-06-22T02:23:59;30.20;46.40
25732;DHT22;13585;50.864;4.406;2023-06-22T02:26:25;30.20;46.30
25732;DHT22;13585;50.864;4.406;2023-06-22T02:28:52;30.20;46.30
25732;DHT22;13585;50.864;4.406;2023-06-22T02:31:18;30.20;46.30
25732;DHT22;13585;50.864;4.406;2023-06-22T02:33:44;30.30;46.40
25732;DHT22;13585;50.864;4.406;2023-06-22T02:36:10;30.20;46.30
25732;DHT22;13585;50.864;4.406;2023-06-22T02:38:42;30.20;46.30
25732;DHT22;13585;50.864;4.406;2023-06-22T02:41:14;30.20;46.30
25732;DHT22;13585;50.864;4.406;2023-06-22T02:43:43;30.20;46.20
25732;DHT22;13585;50.864;4.406;2023-06-22T02:46:09;30.20;46.30
25732;DHT22;13585;50.864;4.406;2023-06-22T02:48:35;30.20;46.20
25732;DHT22;13585;50.864;4.406;2023-06-22T02:51:00;30.20;46.20
25732;DHT22;13585;50.864;4.406;2023-06-22T02:53:26;30.20;46.20
25732;DHT22;13585;50.864;4.406;2023-06-22T02:55:52;30.20;46.20
25732;DHT22;13585;50.864;4.406;2023-06-22T02:58:17;30.20;46.20
25732;DHT22;13585;50.864;4.406;2023-06-22T03:00:43;30.20;46.20
25732;DHT22;13585;50.864;4.406;2023-06-22T03:03:08;30.20;46.10
25732;DHT22;13585;50.864;4.406;2023-06-22T03:05:34;30.20;46.10
25732;DHT22;13585;50.864;4.406;2023-06-22T03:08:00;30.20;46.10
25732;DHT22;13585;50.864;4.406;2023-06-22T03:10:29;30.20;46.20
25732;DHT22;13585;50.864;4.406;2023-06-22T03:12:55;30.20;46.10
25732;DHT22;13585;50.864;4.406;2023-06-22T03:15:20;30.20;46.10
25732;DHT22;13585;50.864;4.406;2023-06-22T03:17:46;30.20;46.10
25732;DHT22;13585;50.864;4.406;2023-06-22T03:20:12;30.20;46.10
25732;DHT22;13585;50.864;4.406;2023-06-22T03:22:38;30.20;46.10
25732;DHT22;13585;50.864;4.406;2023-06-22T03:25:05;30.10;46.00
25732;DHT22;13585;50.864;4.406;2023-06-22T03:27:39;30.20;46.00
25732;DHT22;13585;50.864;4.406;2023-06-22T03:30:06;30.10;46.00
25732;DHT22;13585;50.864;4.406;2023-06-22T03:32:32;30.20;46.00
25732;DHT22;13585;50.864;4.406;2023-06-22T03:34:58;30.20;46.00
25732;DHT22;13585;50.864;4.406;2023-06-22T03:37:25;30.20;46.10
25732;DHT22;13585;50.864;4.406;2023-06-22T03:39:51;30.20;46.10
25732;DHT22;13585;50.864;4.406;2023-06-22T03:42:17;30.10;46.00
25732;DHT22;13585;50.864;4.406;2023-06-22T03:44:43;30.20;46.00
25732;DHT22;13585;50.864;4.406;2023-06-22T03:47:08;30.10;46.00
25732;DHT22;13585;50.864;4.406;2023-06-22T03:49:35;30.10;46.00
25732;DHT22;13585;50.864;4.406;2023-06-22T03:52:01;30.10;46.00
25732;DHT22;13585;50.864;4.406;2023-06-22T03:54:28;30.10;46.00
25732;DHT22;13585;50.864;4.406;2023-06-22T03:56:54;30.10;46.00
25732;DHT22;13585;50.864;4.406;2023-06-22T03:59:19;30.10;46.00
25732;DHT22;13585;50.864;4.406;2023-06-22T04:01:45;30.10;46.00
25732;DHT22;13585;50.864;4.406;2023-06-22T04:04:11;30.10;46.00
25732;DHT22;13585;50.864;4.406;2023-06-22T04:06:38;30.10;46.00
25732;DHT22;13585;50.864;4.406;2023-06-22T04:09:05;30.10;46.00
25732;DHT22;13585;50.864;4.406;2023-06-22T04:11:30;30.10;46.00
25732;DHT22;13585;50.864;4.406;2023-06-22T04:13:58;30.00;45.90
25732;DHT22;13585;50.864;4.406;2023-06-22T04:16:24;30.10;46.00
25732;DHT22;13585;50.864;4.406;2023-06-22T04:18:50;30.10;46.00
25732;DHT22;13585;50.864;4.406;2023-06-22T04:21:15;30.10;46.10
25732;DHT22;13585;50.864;4.406;2023-06-22T04:23:41;30.10;46.10
25732;DHT22;13585;50.864;4.406;2023-06-22T04:26:07;30.10;46.00
25732;DHT22;13585;50.864;4.406;2023-06-22T04:28:32;30.10;46.10
25732;DHT22;13585;50.864;4.406;2023-06-22T04:31:01;30.10;46.00
25732;DHT22;13585;50.864;4.406;2023-06-22T04:33:28;30.10;46.10
25732;DHT22;13585;50.864;4.406;2023-06-22T04:35:57;30.10;46.10
25732;DHT22;13585;50.864;4.406;2023-06-22T04:38:24;30.10;46.00
25732;DHT22;13585;50.864;4.406;2023-06-22T04:40:50;30.10;46.10
25732;DHT22;13585;50.864;4.406;2023-06-22T04:43:16;30.10;46.10
25732;DHT22;13585;50.864;4.406;2023-06-22T04:45:42;30.10;46.10
25732;DHT22;13585;50.864;4.406;2023-06-22T04:48:07;30.10;46.10
25732;DHT22;13585;50.864;4.406;2023-06-22T04:50:41;30.10;46.10
25732;DHT22;13585;50.864;4.406;2023-06-22T04:53:07;30.10;46.10
25732;DHT22;13585;50.864;4.406;2023-06-22T04:55:32;30.10;46.10
25732;DHT22;13585;50.864;4.406;2023-06-22T04:57:58;30.10;46.20
25732;DHT22;13585;50.864;4.406;2023-06-22T05:00:32;30.10;46.10
25732;DHT22;13585;50.864;4.406;2023-06-22T05:02:57;30.10;46.10
25732;DHT22;13585;50.864;4.406;2023-06-22T05:05:24;30.10;46.10
25732;DHT22;13585;50.864;4.406;2023-06-22T05:07:51;30.10;46.10
25732;DHT22;13585;50.864;4.406;2023-06-22T05:10:19;30.00;46.10
25732;DHT22;13585;50.864;4.406;2023-06-22T05:12:45;30.00;46.20
25732;DHT22;13585;50.864;4.406;2023-06-22T05:15:11;30.00;46.30
25732;DHT22;13585;50.864;4.406;2023-06-22T05:17:37;29.90;46.40
25732;DHT22;13585;50.864;4.406;2023-06-22T05:20:09;29.90;46.50
25732;DHT22;13585;50.864;4.406;2023-06-22T05:22:35;29.90;46.50
25732;DHT22;13585;50.864;4.406;2023-06-22T05:25:00;29.90;46.60
25732;DHT22;13585;50.864;4.406;2023-06-22T05:27:26;29.90;46.60
25732;DHT22;13585;50.864;4.406;2023-06-22T05:29:52;29.80;46.60
25732;DHT22;13585;50.864;4.406;2023-06-22T05:32:17;29.80;46.70
25732;DHT22;13585;50.864;4.406;2023-06-22T05:34:44;29.80;46.70
25732;DHT22;13585;50.864;4.406;2023-06-22T05:37:09;29.80;46.80
25732;DHT22;13585;50.864;4.406;2023-06-22T05:39:41;29.80;46.80
25732;DHT22;13585;50.864;4.406;2023-06-22T05:42:07;29.80;46.90
25732;DHT22;13585;50.864;4.406;2023-06-22T05:44:36;29.90;46.90
25732;DHT22;13585;50.864;4.406;2023-06-22T05:47:04;29.90;47.00
25732;DHT22;13585;50.864;4.406;2023-06-22T05:49:30;30.00;46.80
25732;DHT22;13585;50.864;4.406;2023-06-22T05:51:58;30.00;46.80
25732;DHT22;13585;50.864;4.406;2023-06-22T05:54:40;29.90;47.10
25732;DHT22;13585;50.864;4.406;2023-06-22T05:57:07;29.70;47.50
25732;DHT22;13585;50.864;4.406;2023-06-22T05:59:32;29.70;47.70
25732;DHT22;13585;50.864;4.406;2023-06-22T06:01:58;29.60;48.00
25732;DHT22;13585;50.864;4.406;2023-06-22T06:04:26;29.60;48.30
25732;DHT22;13585;50.864;4.406;2023-06-22T06:06:52;29.60;48.60
25732;DHT22;13585;50.864;4.406;2023-06-22T06:09:18;29.50;48.80
25732;DHT22;13585;50.864;4.406;2023-06-22T06:11:44;29.50;49.20
25732;DHT22;13585;50.864;4.406;2023-06-22T06:14:09;29.50;49.40
25732;DHT22;13585;50.864;4.406;2023-06-22T06:16:35;29.40;49.50
25732;DHT22;13585;50.864;4.406;2023-06-22T06:19:04;29.40;49.70
25732;DHT22;13585;50.864;4.406;2023-06-22T06:21:29;29.30;49.80
25732;DHT22;13585;50.864;4.406;2023-06-22T06:23:55;29.30;50.00
25732;DHT22;13585;50.864;4.406;2023-06-22T06:26:20;29.20;50.20
25732;DHT22;13585;50.864;4.406;2023-06-22T06:28:53;29.20;50.20
25732;DHT22;13585;50.864;4.406;2023-06-22T06:31:20;29.20;50.30
25732;DHT22;13585;50.864;4.406;2023-06-22T06:33:46;29.10;50.40
25732;DHT22;13585;50.864;4.406;2023-06-22T06:36:11;29.10;50.50
25732;DHT22;13585;50.864;4.406;2023-06-22T06:38:37;29.10;50.50
25732;DHT22;13585;50.864;4.406;2023-06-22T06:41:03;29.10;50.60
25732;DHT22;13585;50.864;4.406;2023-06-22T06:43:28;29.00;50.60
25732;DHT22;13585;50.864;4.406;2023-06-22T06:45:54;29.00;50.70
25732;DHT22;13585;50.864;4.406;2023-06-22T06:48:19;29.00;50.80
25732;DHT22;13585;50.864;4.406;2023-06-22T06:50:45;29.00;50.80
25732;DHT22;13585;50.864;4.406;2023-06-22T06:53:11;29.00;50.90
25732;DHT22;13585;50.864;4.406;2023-06-22T06:55:36;29.00;50.90
25732;DHT22;13585;50.864;4.406;2023-06-22T06:58:03;29.00;50.90
25732;DHT22;13585;50.864;4.406;2023-06-22T07:00:33;29.00;50.90
25732;DHT22;13585;50.864;4.406;2023-06-22T07:02:58;29.00;50.90
25732;DHT22;13585;50.864;4.406;2023-06-22T07:05:24;29.00;51.00
25732;DHT22;13585;50.864;4.406;2023-06-22T07:08:05;29.00;51.10
25732;DHT22;13585;50.864;4.406;2023-06-22T07:10:42;28.90;51.10
25732;DHT22;13585;50.864;4.406;2023-06-22T07:13:13;29.00;51.40
25732;DHT22;13585;50.864;4.406;2023-06-22T07:15:45;29.00;51.00
25732;DHT22;13585;50.864;4.406;2023-06-22T07:28:23;29.10;50.80
25732;DHT22;13585;50.864;4.406;2023-06-22T07:30:49;29.10;51.00
25732;DHT22;13585;50.864;4.406;2023-06-22T07:33:22;29.10;51.00
25732;DHT22;13585;50.864;4.406;2023-06-22T07:35:47;29.00;50.90
25732;DHT22;13585;50.864;4.406;2023-06-22T07:38:16;29.10;50.90
25732;DHT22;13585;50.864;4.406;2023-06-22T07:40:42;29.00;50.90
25732;DHT22;13585;50.864;4.406;2023-06-22T07:43:07;29.00;50.90
25732;DHT22;13585;50.864;4.406;2023-06-22T07:45:34;29.10;50.90
25732;DHT22;13585;50.864;4.406;2023-06-22T07:48:01;29.10;50.80
25732;DHT22;13585;50.864;4.406;2023-06-22T07:50:26;29.10;50.80
25732;DHT22;13585;50.864;4.406;2023-06-22T07:52:52;29.10;50.70
25732;DHT22;13585;50.864;4.406;2023-06-22T07:55:18;29.10;50.70
25732;DHT22;13585;50.864;4.406;2023-06-22T07:57:44;29.10;50.60
25732;DHT22;13585;50.864;4.406;2023-06-22T08:00:19;29.10;50.60
25732;DHT22;13585;50.864;4.406;2023-06-22T08:02:46;29.10;50.60
25732;DHT22;13585;50.864;4.406;2023-06-22T08:05:13;29.10;50.60
25732;DHT22;13585;50.864;4.406;2023-06-22T08:07:39;29.10;50.60
25732;DHT22;13585;50.864;4.406;2023-06-22T08:10:06;29.10;51.30
25732;DHT22;13585;50.864;4.406;2023-06-22T08:15:20;29.00;50.70
25732;DHT22;13585;50.864;4.406;2023-06-22T08:17:56;29.00;50.70
25732;DHT22;13585;50.864;4.406;2023-06-22T08:20:28;29.00;50.70
25732;DHT22;13585;50.864;4.406;2023-06-22T08:22:55;29.00;50.80
25732;DHT22;13585;50.864;4.406;2023-06-22T08:25:23;29.00;50.70
25732;DHT22;13585;50.864;4.406;2023-06-22T08:27:48;29.10;50.80
25732;DHT22;13585;50.864;4.406;2023-06-22T08:30:15;29.00;50.80
25732;DHT22;13585;50.864;4.406;2023-06-22T08:32:40;29.00;50.80
25732;DHT22;13585;50.864;4.406;2023-06-22T08:35:06;29.00;50.80
25732;DHT22;13585;50.864;4.406;2023-06-22T08:37:34;29.00;50.90
25732;DHT22;13585;50.864;4.406;2023-06-22T08:40:01;29.00;51.50
25732;DHT22;13585;50.864;4.406;2023-06-22T08:42:27;29.00;51.00
25732;DHT22;13585;50.864;4.406;2023-06-22T08:44:52;29.00;51.00
25732;DHT22;13585;50.864;4.406;2023-06-22T08:47:19;29.00;51.00
25732;DHT22;13585;50.864;4.406;2023-06-22T08:49:45;29.00;51.00
25732;DHT22;13585;50.864;4.406;2023-06-22T08:52:11;29.00;51.00
25732;DHT22;13585;50.864;4.406;2023-06-22T08:54:36;29.00;51.00
25732;DHT22;13585;50.864;4.406;2023-06-22T08:57:02;28.90;51.10
25732;DHT22;13585;50.864;4.406;2023-06-22T08:59:28;28.90;51.10
25732;DHT22;13585;50.864;4.406;2023-06-22T09:01:54;28.90;51.10
25732;DHT22;13585;50.864;4.406;2023-06-22T09:04:19;28.90;51.10
25732;DHT22;13585;50.864;4.406;2023-06-22T09:06:47;28.90;51.10
25732;DHT22;13585;50.864;4.406;2023-06-22T09:09:14;28.90;51.10
25732;DHT22;13585;50.864;4.406;2023-06-22T09:11:40;28.90;51.10
25732;DHT22;13585;50.864;4.406;2023-06-22T09:14:06;28.90;51.10
25732;DHT22;13585;50.864;4.406;2023-06-22T09:16:33;28.90;51.20
25732;DHT22;13585;50.864;4.406;2023-06-22T09:18:59;28.90;51.20
25732;DHT22;13585;50.864;4.406;2023-06-22T09:21:25;28.90;51.20
25732;DHT22;13585;50.864;4.406;2023-06-22T09:23:50;28.90;51.20
25732;DHT22;13585;50.864;4.406;2023-06-22T09:26:20;28.90;51.30
25732;DHT22;13585;50.864;4.406;2023-06-22T09:28:46;28.90;51.30
25732;DHT22;13585;50.864;4.406;2023-06-22T09:31:25;28.90;51.40
25732;DHT22;13585;50.864;4.406;2023-06-22T09:33:54;28.90;51.50
25732;DHT22;13585;50.864;4.406;2023-06-22T09:36:21;28.90;51.60
25732;DHT22;13585;50.864;4.406;2023-06-22T09:38:48;28.90;51.60
25732;DHT22;13585;50.864;4.406;2023-06-22T09:41:24;28.90;51.70
25732;DHT22;13585;50.864;4.406;2023-06-22T09:43:59;28.90;51.90
25732;DHT22;13585;50.864;4.406;2023-06-22T09:46:25;28.80;52.60
25732;DHT22;13585;50.864;4.406;2023-06-22T09:48:50;28.90;52.10
25732;DHT22;13585;50.864;4.406;2023-06-22T09:51:23;28.90;52.20
25732;DHT22;13585;50.864;4.406;2023-06-22T09:53:49;28.80;52.40
25732;DHT22;13585;50.864;4.406;2023-06-22T09:56:15;28.90;52.50
25732;DHT22;13585;50.864;4.406;2023-06-22T09:59:08;28.90;52.90
25732;DHT22;13585;50.864;4.406;2023-06-22T10:01:33;28.80;53.00
25732;DHT22;13585;50.864;4.406;2023-06-22T10:03:59;28.80;52.90
25732;DHT22;13585;50.864;4.406;2023-06-22T10:06:24;28.80;53.00
25732;DHT22;13585;50.864;4.406;2023-06-22T10:08:51;28.70;53.00
25732;DHT22;13585;50.864;4.406;2023-06-22T10:11:17;28.70;53.10
25732;DHT22;13585;50.864;4.406;2023-06-22T10:13:42;28.70;53.30
25732;DHT22;13585;50.864;4.406;2023-06-22T10:16:08;28.70;53.50
25732;DHT22;13585;50.864;4.406;2023-06-22T10:18:34;28.60;53.60
25732;DHT22;13585;50.864;4.406;2023-06-22T10:21:00;28.70;53.90
25732;DHT22;13585;50.864;4.406;2023-06-22T10:23:25;28.60;53.90
25732;DHT22;13585;50.864;4.406;2023-06-22T10:25:51;28.60;54.00
25732;DHT22;13585;50.864;4.406;2023-06-22T10:28:17;28.50;54.00
25732;DHT22;13585;50.864;4.406;2023-06-22T10:30:42;28.60;54.10
25732;DHT22;13585;50.864;4.406;2023-06-22T10:33:09;28.60;54.10
25732;DHT22;13585;50.864;4.406;2023-06-22T10:35:35;28.60;54.10
25732;DHT22;13585;50.864;4.406;2023-06-22T10:38:03;28.60;54.00
25732;DHT22;13585;50.864;4.406;2023-06-22T10:40:29;28.70;54.00
25732;DHT22;13585;50.864;4.406;2023-06-22T10:42:55;28.70;54.00
25732;DHT22;13585;50.864;4.406;2023-06-22T10:45:20;28.80;54.00
25732;DHT22;13585;50.864;4.406;2023-06-22T10:47:46;28.80;53.80
25732;DHT22;13585;50.864;4.406;2023-06-22T10:50:12;28.90;53.80
25732;DHT22;13585;50.864;4.406;2023-06-22T10:52:37;28.90;53.60
25732;DHT22;13585;50.864;4.406;2023-06-22T10:55:04;29.00;53.50
25732;DHT22;13585;50.864;4.406;2023-06-22T10:57:29;29.00;53.30
25732;DHT22;13585;50.864;4.406;2023-06-22T10:59:55;29.10;53.10
25732;DHT22;13585;50.864;4.406;2023-06-22T11:02:20;29.10;53.00
25732;DHT22;13585;50.864;4.406;2023-06-22T11:04:46;29.10;52.90
25732;DHT22;13585;50.864;4.406;2023-06-22T11:07:13;29.20;52.80
25732;DHT22;13585;50.864;4.406;2023-06-22T11:09:38;29.20;52.70
25732;DHT22;13585;50.864;4.406;2023-06-22T11:12:05;29.30;52.70
25732;DHT22;13585;50.864;4.406;2023-06-22T11:14:33;29.20;52.60
25732;DHT22;13585;50.864;4.406;2023-06-22T11:16:59;29.20;52.50
25732;DHT22;13585;50.864;4.406;2023-06-22T11:19:25;29.30;52.40
25732;DHT22;13585;50.864;4.406;2023-06-22T11:21:51;29.30;52.40
25732;DHT22;13585;50.864;4.406;2023-06-22T11:24:17;29.30;52.30
25732;DHT22;13585;50.864;4.406;2023-06-22T11:26:43;29.30;52.10
25732;DHT22;13585;50.864;4.406;2023-06-22T11:29:08;29.30;52.10
25732;DHT22;13585;50.864;4.406;2023-06-22T11:31:37;29.30;52.00
25732;DHT22;13585;50.864;4.406;2023-06-22T11:34:03;29.40;52.00
25732;DHT22;13585;50.864;4.406;2023-06-22T11:36:29;29.40;51.80
25732;DHT22;13585;50.864;4.406;2023-06-22T11:38:58;29.40;51.70
25732;DHT22;13585;50.864;4.406;2023-06-22T11:41:23;29.40;51.70
25732;DHT22;13585;50.864;4.406;2023-06-22T11:43:49;29.40;51.60
25732;DHT22;13585;50.864;4.406;2023-06-22T11:46:15;29.40;51.50
25732;DHT22;13585;50.864;4.406;2023-06-22T11:48:40;29.40;51.40
25732;DHT22;13585;50.864;4.406;2023-06-22T11:51:06;29.40;51.40
25732;DHT22;13585;50.864;4.406;2023-06-22T11:53:34;29.40;51.40
25732;DHT22;13585;50.864;4.406;2023-06-22T11:56:00;29.40;51.30
25732;DHT22;13585;50.864;4.406;2023-06-22T11:59:11;29.40;51.20
25732;DHT22;13585;50.864;4.406;2023-06-22T12:01:45;29.40;51.30
25732;DHT22;13585;50.864;4.406;2023-06-22T12:04:42;29.50;51.30
25732;DHT22;13585;50.864;4.406;2023-06-22T12:07:22;29.50;51.40
25732;DHT22;13585;50.864;4.406;2023-06-22T12:10:07;29.50;51.40
25732;DHT22;13585;50.864;4.406;2023-06-22T12:12:54;29.50;51.40
25732;DHT22;13585;50.864;4.406;2023-06-22T12:15:20;29.50;51.30
25732;DHT22;13585;50.864;4.406;2023-06-22T12:18:01;29.50;51.20
25732;DHT22;13585;50.864;4.406;2023-06-22T12:20:42;29.40;51.20
25732;DHT22;13585;50.864;4.406;2023-06-22T12:23:19;29.50;51.10
25732;DHT22;13585;50.864;4.406;2023-06-22T12:25:48;29.50;51.10
25732;DHT22;13585;50.864;4.406;2023-06-22T12:28:16;29.60;51.00
25732;DHT22;13585;50.864;4.406;2023-06-22T12:30:42;29.50;50.90
25732;DHT22;13585;50.864;4.406;2023-06-22T12:33:20;29.50;51.00
25732;DHT22;13585;50.864;4.406;2023-06-22T12:35:57;29.50;51.10
25732;DHT22;13585;50.864;4.406;2023-06-22T12:41:17;29.50;51.00
25732;DHT22;13585;50.864;4.406;2023-06-22T12:43:55;29.60;51.00
25732;DHT22;13585;50.864;4.406;2023-06-22T12:46:21;29.60;50.80
25732;DHT22;13585;50.864;4.406;2023-06-22T12:51:40;29.50;50.80
25732;DHT22;13585;50.864;4.406;2023-06-22T12:54:26;29.50;50.90
25732;DHT22;13585;50.864;4.406;2023-06-22T12:57:13;29.50;51.00
25732;DHT22;13585;50.864;4.406;2023-06-22T12:59:39;29.60;50.80
25732;DHT22;13585;50.864;4.406;2023-06-22T13:02:05;29.60;50.80
25732;DHT22;13585;50.864;4.406;2023-06-22T13:04:31;29.50;50.90
25732;DHT22;13585;50.864;4.406;2023-06-22T13:06:56;29.60;51.00
25732;DHT22;13585;50.864;4.406;2023-06-22T13:09:22;29.50;50.90
25732;DHT22;13585;50.864;4.406;2023-06-22T13:11:48;29.60;51.20
25732;DHT22;13585;50.864;4.406;2023-06-22T13:14:13;29.60;51.20
25732;DHT22;13585;50.864;4.406;2023-06-22T13:16:41;29.60;51.20
25732;DHT22;13585;50.864;4.406;2023-06-22T13:19:07;29.50;51.10
25732;DHT22;13585;50.864;4.406;2023-06-22T13:21:32;29.60;51.00
25732;DHT22;13585;50.864;4.406;2023-06-22T13:23:59;29.60;50.90
25732;DHT22;13585;50.864;4.406;2023-06-22T13:26:25;29.50;51.10
25732;DHT22;13585;50.864;4.406;2023-06-22T13:28:50;29.60;51.10
25732;DHT22;13585;50.864;4.406;2023-06-22T13:31:16;29.50;51.10
25732;DHT22;13585;50.864;4.406;2023-06-22T13:33:45;29.60;51.20
25732;DHT22;13585;50.864;4.406;2023-06-22T13:36:13;29.50;51.00
25732;DHT22;13585;50.864;4.406;2023-06-22T13:38:40;29.50;51.00
25732;DHT22;13585;50.864;4.406;2023-06-22T13:46:34;29.60;51.10
25732;DHT22;13585;50.864;4.406;2023-06-22T13:49:19;29.50;51.20
25732;DHT22;13585;50.864;4.406;2023-06-22T13:51:50;29.50;51.10
25732;DHT22;13585;50.864;4.406;2023-06-22T13:54:16;29.60;51.00
25732;DHT22;13585;50.864;4.406;2023-06-22T13:56:42;29.50;50.70
25732;DHT22;13585;50.864;4.406;2023-06-22T13:59:08;29.60;50.70
25732;DHT22;13585;50.864;4.406;2023-06-22T14:01:35;29.60;50.70
25732;DHT22;13585;50.864;4.406;2023-06-22T14:04:01;29.60;50.60
25732;DHT22;13585;50.864;4.406;2023-06-22T14:06:30;29.60;50.60
25732;DHT22;13585;50.864;4.406;2023-06-22T14:08:55;29.60;50.50
25732;DHT22;13585;50.864;4.406;2023-06-22T14:11:21;29.60;50.50
25732;DHT22;13585;50.864;4.406;2023-06-22T14:13:47;29.60;50.40
25732;DHT22;13585;50.864;4.406;2023-06-22T14:16:13;29.60;50.40
25732;DHT22;13585;50.864;4.406;2023-06-22T14:18:38;29.50;50.40
25732;DHT22;13585;50.864;4.406;2023-06-22T14:21:04;29.60;50.40
25732;DHT22;13585;50.864;4.406;2023-06-22T14:23:30;29.50;50.30
25732;DHT22;13585;50.864;4.406;2023-06-22T14:25:55;29.50;50.30
25732;DHT22;13585;50.864;4.406;2023-06-22T14:28:21;29.60;50.40
25732;DHT22;13585;50.864;4.406;2023-06-22T14:30:47;29.60;50.30
25732;DHT22;13585;50.864;4.406;2023-06-22T14:33:12;29.60;50.30
25732;DHT22;13585;50.864;4.406;2023-06-22T14:35:38;29.50;50.20
25732;DHT22;13585;50.864;4.406;2023-06-22T14:38:04;29.50;50.10
25732;DHT22;13585;50.864;4.406;2023-06-22T14:40:30;29.60;50.30
25732;DHT22;13585;50.864;4.406;2023-06-22T14:42:56;29.60;50.20
25732;DHT22;13585;50.864;4.406;2023-06-22T14:45:22;29.60;50.10
25732;DHT22;13585;50.864;4.406;2023-06-22T14:47:48;29.60;50.10
25732;DHT22;13585;50.864;4.406;2023-06-22T14:50:14;29.60;50.20
25732;DHT22;13585;50.864;4.406;2023-06-22T14:52:39;29.50;50.20
25732;DHT22;13585;50.864;4.406;2023-06-22T14:55:05;29.60;50.30
25732;DHT22;13585;50.864;4.406;2023-06-22T14:57:31;29.50;50.10
25732;DHT22;13585;50.864;4.406;2023-06-22T14:59:57;29.60;50.20
25732;DHT22;13585;50.864;4.406;2023-06-22T15:02:22;29.60;50.20
25732;DHT22;13585;50.864;4.406;2023-06-22T15:04:48;29.50;50.40
25732;DHT22;13585;50.864;4.406;2023-06-22T15:07:14;29.50;50.40
25732;DHT22;13585;50.864;4.406;2023-06-22T15:09:40;29.50;50.30
25732;DHT22;13585;50.864;4.406;2023-06-22T15:12:08;29.50;50.30
25732;DHT22;13585;50.864;4.406;2023-06-22T15:14:40;29.50;50.20
25732;DHT22;13585;50.864;4.406;2023-06-22T15:17:21;29.50;50.30
25732;DHT22;13585;50.864;4.406;2023-06-22T15:19:52;29.50;50.30
25732;DHT22;13585;50.864;4.406;2023-06-22T15:22:18;29.50;50.80
25732;DHT22;13585;50.864;4.406;2023-06-22T15:24:45;29.60;50.20
25732;DHT22;13585;50.864;4.406;2023-06-22T15:27:13;29.50;50.20
25732;DHT22;13585;50.864;4.406;2023-06-22T15:29:42;29.50;50.10
25732;DHT22;13585;50.864;4.406;2023-06-22T15:32:13;29.50;50.30
25732;DHT22;13585;50.864;4.406;2023-06-22T15:35:14;29.50;50.30
25732;DHT22;13585;50.864;4.406;2023-06-22T15:37:42;29.50;50.40
25732;DHT22;13585;50.864;4.406;2023-06-22T15:40:07;29.50;50.20
25732;DHT22;13585;50.864;4.406;2023-06-22T15:42:33;29.50;50.10
25732;DHT22;13585;50.864;4.406;2023-06-22T15:45:01;29.50;50.10
25732;DHT22;13585;50.864;4.406;2023-06-22T15:47:26;29.50;50.10
25732;DHT22;13585;50.864;4.406;2023-06-22T15:49:52;29.60;50.10
25732;DHT22;13585;50.864;4.406;2023-06-22T15:52:18;29.60;50.20
25732;DHT22;13585;50.864;4.406;2023-06-22T15:54:53;29.50;50.10
25732;DHT22;13585;50.864;4.406;2023-06-22T15:57:27;29.50;50.20
25732;DHT22;13585;50.864;4.406;2023-06-22T15:59:53;29.50;50.10
25732;DHT22;13585;50.864;4.406;2023-06-22T16:02:39;29.50;50.10